ALM Airport (Alamogordo-White Sands Rgnl) Information

FAA: ALM - ICAO: KALM

ALM Airport Location

State New Mexico
County Otero
City Alamogordo
ALM Airport is 4 miles southwest of Alamogordo, NM.
Latitude 32-50-21.9000N
Longitude 105-59-28.1000W
Elevation 4,199ft

KALM Airport METARs

METAR KALM 280235Z AUTO 01007KT 10SM CLR 12/M11 A3006 RMK AO2
Altimeter 30.06"
Temperature 12.0°C (53.6°F)
Wind 10° at 7KT
Clouds Skies are clear.
Visibility 10.0mi
Time observed: 2021-10-28T02:35:00Z

ALM Airport Details

Status Operational
Activation October 1959
Ownership Public
Usage Public
Chart ALBUQUERQUE
ATC on-site No
Beacon schedule sunset-sunrise
Beacon color clear green

ALM Airport Contacts

Owner CITY OF ALAMOGORDO
Owner address 1376 E 9TH STREET, ALAMOGORDO, NM 88310
Owner phone 505-439-4100
Manager PAUL ESPOSITO
Manager address TETERBORO AIRPORT, 121B BILLY DIEHL ROAD, TETERBORO, NJ 07608
Manager phone 201-288-2761

ALM Airport (Alamogordo-White Sands Rgnl) Radio Frequencies

ALM (Airport) Radio Frequencies

UNICOM 122.8
Common traffic advisory frequency (CTAF) 122.8